sensor_id;sensor_type;location;lat;lon;timestamp;temperature;humidity
11246;DHT22;59870;50.106;8.580;2022-10-17T00:01:03;18.10;98.00
11246;DHT22;59870;50.106;8.580;2022-10-17T00:03:32;18.10;98.10
11246;DHT22;59870;50.106;8.580;2022-10-17T00:06:08;18.10;98.10
11246;DHT22;59870;50.106;8.580;2022-10-17T00:08:37;18.00;98.10
11246;DHT22;59870;50.106;8.580;2022-10-17T00:11:18;18.20;98.30
11246;DHT22;59870;50.106;8.580;2022-10-17T00:13:47;18.00;98.10
11246;DHT22;59870;50.106;8.580;2022-10-17T00:16:27;18.20;98.30
11246;DHT22;59870;50.106;8.580;2022-10-17T00:18:55;18.00;98.20
11246;DHT22;59870;50.106;8.580;2022-10-17T00:21:23;18.10;98.20
11246;DHT22;59870;50.106;8.580;2022-10-17T00:23:57;17.90;98.20
11246;DHT22;59870;50.106;8.580;2022-10-17T00:26:25;17.90;98.40
11246;DHT22;59870;50.106;8.580;2022-10-17T00:28:54;18.10;98.50
11246;DHT22;59870;50.106;8.580;2022-10-17T00:31:23;17.90;98.40
11246;DHT22;59870;50.106;8.580;2022-10-17T00:33:51;17.90;98.40
11246;DHT22;59870;50.106;8.580;2022-10-17T00:36:21;17.80;98.60
11246;DHT22;59870;50.106;8.580;2022-10-17T00:38:53;18.00;98.80
11246;DHT22;59870;50.106;8.580;2022-10-17T00:41:25;18.10;98.80
11246;DHT22;59870;50.106;8.580;2022-10-17T00:43:58;18.00;98.80
11246;DHT22;59870;50.106;8.580;2022-10-17T00:46:35;17.80;98.60
11246;DHT22;59870;50.106;8.580;2022-10-17T00:49:09;17.70;98.50
11246;DHT22;59870;50.106;8.580;2022-10-17T00:51:41;17.70;98.50
11246;DHT22;59870;50.106;8.580;2022-10-17T00:54:10;17.70;98.50
11246;DHT22;59870;50.106;8.580;2022-10-17T00:56:38;17.70;98.50
11246;DHT22;59870;50.106;8.580;2022-10-17T00:59:08;17.70;98.40
11246;DHT22;59870;50.106;8.580;2022-10-17T01:01:40;17.70;98.80
11246;DHT22;59870;50.106;8.580;2022-10-17T01:04:08;17.60;98.40
11246;DHT22;59870;50.106;8.580;2022-10-17T01:06:38;17.60;98.40
11246;DHT22;59870;50.106;8.580;2022-10-17T01:09:06;17.60;98.40
11246;DHT22;59870;50.106;8.580;2022-10-17T01:12:14;17.80;98.40
11246;DHT22;59870;50.106;8.580;2022-10-17T01:18:47;17.60;98.50
11246;DHT22;59870;50.106;8.580;2022-10-17T01:24:38;17.50;98.30
11246;DHT22;59870;50.106;8.580;2022-10-17T01:38:50;17.30;98.50
11246;DHT22;59870;50.106;8.580;2022-10-17T01:41:25;17.30;98.50
11246;DHT22;59870;50.106;8.580;2022-10-17T01:44:08;17.30;98.50
11246;DHT22;59870;50.106;8.580;2022-10-17T01:46:48;17.30;98.50
11246;DHT22;59870;50.106;8.580;2022-10-17T01:49:21;17.20;98.40
11246;DHT22;59870;50.106;8.580;2022-10-17T01:51:59;17.20;98.30
11246;DHT22;59870;50.106;8.580;2022-10-17T01:54:38;17.40;98.40
11246;DHT22;59870;50.106;8.580;2022-10-17T01:57:13;17.20;98.30
11246;DHT22;59870;50.106;8.580;2022-10-17T01:59:44;17.20;98.30
11246;DHT22;59870;50.106;8.580;2022-10-17T02:02:13;17.40;98.40
11246;DHT22;59870;50.106;8.580;2022-10-17T02:04:42;17.20;98.30
11246;DHT22;59870;50.106;8.580;2022-10-17T02:07:11;17.10;98.20
11246;DHT22;59870;50.106;8.580;2022-10-17T02:09:38;17.10;98.30
11246;DHT22;59870;50.106;8.580;2022-10-17T02:24:10;17.00;98.20
11246;DHT22;59870;50.106;8.580;2022-10-17T02:27:07;17.00;98.30
11246;DHT22;59870;50.106;8.580;2022-10-17T02:29:49;17.00;98.30
11246;DHT22;59870;50.106;8.580;2022-10-17T02:32:36;17.10;98.40
11246;DHT22;59870;50.106;8.580;2022-10-17T02:35:08;16.90;98.40
11246;DHT22;59870;50.106;8.580;2022-10-17T02:37:36;16.80;98.40
11246;DHT22;59870;50.106;8.580;2022-10-17T02:40:06;17.10;98.60
11246;DHT22;59870;50.106;8.580;2022-10-17T02:42:42;16.90;98.50
11246;DHT22;59870;50.106;8.580;2022-10-17T02:45:13;16.90;98.50
11246;DHT22;59870;50.106;8.580;2022-10-17T02:47:52;16.90;98.40
11246;DHT22;59870;50.106;8.580;2022-10-17T02:51:17;16.90;98.40
11246;DHT22;59870;50.106;8.580;2022-10-17T02:53:37;16.80;98.30
11246;DHT22;59870;50.106;8.580;2022-10-17T02:56:13;16.90;98.30
11246;DHT22;59870;50.106;8.580;2022-10-17T02:58:47;16.80;98.30
11246;DHT22;59870;50.106;8.580;2022-10-17T03:01:18;17.00;98.50
11246;DHT22;59870;50.106;8.580;2022-10-17T03:03:46;16.80;98.40
11246;DHT22;59870;50.106;8.580;2022-10-17T03:06:13;16.80;98.40
11246;DHT22;59870;50.106;8.580;2022-10-17T03:08:41;16.80;98.30
11246;DHT22;59870;50.106;8.580;2022-10-17T03:11:08;16.80;98.40
11246;DHT22;59870;50.106;8.580;2022-10-17T03:13:35;16.80;98.40
11246;DHT22;59870;50.106;8.580;2022-10-17T03:16:06;16.70;98.40
11246;DHT22;59870;50.106;8.580;2022-10-17T03:18:34;16.70;98.40
11246;DHT22;59870;50.106;8.580;2022-10-17T03:21:02;16.70;98.40
11246;DHT22;59870;50.106;8.580;2022-10-17T03:23:31;16.70;98.40
11246;DHT22;59870;50.106;8.580;2022-10-17T03:26:03;16.70;98.40
11246;DHT22;59870;50.106;8.580;2022-10-17T03:28:32;16.70;98.40
11246;DHT22;59870;50.106;8.580;2022-10-17T03:31:06;16.60;98.30
11246;DHT22;59870;50.106;8.580;2022-10-17T03:33:36;16.60;98.30
11246;DHT22;59870;50.106;8.580;2022-10-17T03:36:08;16.80;98.30
11246;DHT22;59870;50.106;8.580;2022-10-17T03:38:36;16.60;98.20
11246;DHT22;59870;50.106;8.580;2022-10-17T03:41:04;16.80;98.20
11246;DHT22;59870;50.106;8.580;2022-10-17T03:43:32;16.50;98.10
11246;DHT22;59870;50.106;8.580;2022-10-17T03:46:00;16.50;98.10
11246;DHT22;59870;50.106;8.580;2022-10-17T03:48:30;16.50;98.10
11246;DHT22;59870;50.106;8.580;2022-10-17T03:51:04;16.50;98.20
11246;DHT22;59870;50.106;8.580;2022-10-17T03:53:35;16.40;98.20
11246;DHT22;59870;50.106;8.580;2022-10-17T03:56:15;16.40;98.20
11246;DHT22;59870;50.106;8.580;2022-10-17T03:58:46;16.40;98.20
11246;DHT22;59870;50.106;8.580;2022-10-17T04:01:16;16.60;98.30
11246;DHT22;59870;50.106;8.580;2022-10-17T04:03:53;16.40;98.30
11246;DHT22;59870;50.106;8.580;2022-10-17T04:06:21;16.60;98.50
11246;DHT22;59870;50.106;8.580;2022-10-17T04:08:49;16.40;98.50
11246;DHT22;59870;50.106;8.580;2022-10-17T04:11:32;16.40;98.40
11246;DHT22;59870;50.106;8.580;2022-10-17T04:14:01;16.40;98.50
11246;DHT22;59870;50.106;8.580;2022-10-17T04:16:29;16.50;98.60
11246;DHT22;59870;50.106;8.580;2022-10-17T04:19:00;16.30;98.60
11246;DHT22;59870;50.106;8.580;2022-10-17T04:21:33;16.30;98.60
11246;DHT22;59870;50.106;8.580;2022-10-17T04:24:05;16.30;98.70
11246;DHT22;59870;50.106;8.580;2022-10-17T04:26:44;16.70;98.90
11246;DHT22;59870;50.106;8.580;2022-10-17T04:29:12;16.30;98.70
11246;DHT22;59870;50.106;8.580;2022-10-17T04:31:42;16.30;98.70
11246;DHT22;59870;50.106;8.580;2022-10-17T04:34:16;16.30;98.70
11246;DHT22;59870;50.106;8.580;2022-10-17T04:36:44;16.50;98.70
11246;DHT22;59870;50.106;8.580;2022-10-17T04:39:13;16.30;98.70
11246;DHT22;59870;50.106;8.580;2022-10-17T04:41:41;16.50;98.80
11246;DHT22;59870;50.106;8.580;2022-10-17T04:44:09;16.20;98.70
11246;DHT22;59870;50.106;8.580;2022-10-17T04:46:41;16.30;98.70
11246;DHT22;59870;50.106;8.580;2022-10-17T04:49:08;16.20;98.70
11246;DHT22;59870;50.106;8.580;2022-10-17T04:51:37;16.20;98.60
11246;DHT22;59870;50.106;8.580;2022-10-17T04:54:14;16.20;98.60
11246;DHT22;59870;50.106;8.580;2022-10-17T04:56:46;16.30;98.70
11246;DHT22;59870;50.106;8.580;2022-10-17T04:59:14;16.50;98.80
11246;DHT22;59870;50.106;8.580;2022-10-17T05:01:44;16.20;98.60
11246;DHT22;59870;50.106;8.580;2022-10-17T05:04:13;16.20;98.70
11246;DHT22;59870;50.106;8.580;2022-10-17T05:06:40;16.40;98.70
11246;DHT22;59870;50.106;8.580;2022-10-17T05:09:28;16.40;98.60
11246;DHT22;59870;50.106;8.580;2022-10-17T05:11:56;16.20;98.50
11246;DHT22;59870;50.106;8.580;2022-10-17T05:14:25;16.20;98.60
11246;DHT22;59870;50.106;8.580;2022-10-17T05:16:53;16.10;98.70
11246;DHT22;59870;50.106;8.580;2022-10-17T05:19:20;16.10;98.70
11246;DHT22;59870;50.106;8.580;2022-10-17T05:21:50;16.10;98.70
11246;DHT22;59870;50.106;8.580;2022-10-17T05:24:18;16.10;98.80
11246;DHT22;59870;50.106;8.580;2022-10-17T05:26:45;16.10;98.90
11246;DHT22;59870;50.106;8.580;2022-10-17T05:29:12;16.10;98.80
11246;DHT22;59870;50.106;8.580;2022-10-17T05:31:45;16.30;99.10
11246;DHT22;59870;50.106;8.580;2022-10-17T05:34:12;16.10;99.00
11246;DHT22;59870;50.106;8.580;2022-10-17T05:36:41;16.10;98.90
11246;DHT22;59870;50.106;8.580;2022-10-17T05:39:11;16.10;98.90
11246;DHT22;59870;50.106;8.580;2022-10-17T05:41:41;16.30;99.20
11246;DHT22;59870;50.106;8.580;2022-10-17T05:44:08;16.30;99.00
11246;DHT22;59870;50.106;8.580;2022-10-17T05:46:43;16.00;98.70
11246;DHT22;59870;50.106;8.580;2022-10-17T05:49:10;16.00;98.60
11246;DHT22;59870;50.106;8.580;2022-10-17T05:51:58;16.00;98.50
11246;DHT22;59870;50.106;8.580;2022-10-17T05:54:26;16.20;98.50
11246;DHT22;59870;50.106;8.580;2022-10-17T05:56:55;16.00;98.50
11246;DHT22;59870;50.106;8.580;2022-10-17T05:59:27;16.00;98.60
11246;DHT22;59870;50.106;8.580;2022-10-17T06:02:11;16.00;98.70
11246;DHT22;59870;50.106;8.580;2022-10-17T06:04:40;16.00;98.70
11246;DHT22;59870;50.106;8.580;2022-10-17T06:07:13;15.90;98.70
11246;DHT22;59870;50.106;8.580;2022-10-17T06:09:42;15.90;98.80
11246;DHT22;59870;50.106;8.580;2022-10-17T06:12:10;15.90;98.70
11246;DHT22;59870;50.106;8.580;2022-10-17T06:14:38;15.90;98.80
11246;DHT22;59870;50.106;8.580;2022-10-17T06:17:06;16.10;99.00
11246;DHT22;59870;50.106;8.580;2022-10-17T06:19:39;16.10;99.00
11246;DHT22;59870;50.106;8.580;2022-10-17T06:22:07;15.90;99.00
11246;DHT22;59870;50.106;8.580;2022-10-17T06:24:35;16.00;99.20
11246;DHT22;59870;50.106;8.580;2022-10-17T06:27:04;16.20;99.30
11246;DHT22;59870;50.106;8.580;2022-10-17T06:29:38;16.00;99.30
11246;DHT22;59870;50.106;8.580;2022-10-17T06:32:06;16.00;99.30
11246;DHT22;59870;50.106;8.580;2022-10-17T06:34:39;16.00;99.40
11246;DHT22;59870;50.106;8.580;2022-10-17T06:37:07;16.20;99.60
11246;DHT22;59870;50.106;8.580;2022-10-17T06:39:35;16.20;99.60
11246;DHT22;59870;50.106;8.580;2022-10-17T06:42:11;16.00;99.80
11246;DHT22;59870;50.106;8.580;2022-10-17T06:44:46;16.00;99.90
11246;DHT22;59870;50.106;8.580;2022-10-17T06:47:33;16.10;99.90
11246;DHT22;59870;50.106;8.580;2022-10-17T06:50:09;16.10;99.90
11246;DHT22;59870;50.106;8.580;2022-10-17T06:52:45;16.10;99.90
11246;DHT22;59870;50.106;8.580;2022-10-17T06:55:51;16.10;99.90
11246;DHT22;59870;50.106;8.580;2022-10-17T06:58:40;16.10;99.90
11246;DHT22;59870;50.106;8.580;2022-10-17T07:01:21;16.20;99.90
11246;DHT22;59870;50.106;8.580;2022-10-17T07:03:53;16.20;99.90
11246;DHT22;59870;50.106;8.580;2022-10-17T07:06:22;16.20;99.90
11246;DHT22;59870;50.106;8.580;2022-10-17T07:08:55;16.20;99.90
11246;DHT22;59870;50.106;8.580;2022-10-17T07:11:22;16.40;99.90
11246;DHT22;59870;50.106;8.580;2022-10-17T07:13:51;16.40;99.90
11246;DHT22;59870;50.106;8.580;2022-10-17T07:16:20;16.30;99.90
11246;DHT22;59870;50.106;8.580;2022-10-17T07:18:54;16.30;99.90
11246;DHT22;59870;50.106;8.580;2022-10-17T07:21:22;16.40;99.90
11246;DHT22;59870;50.106;8.580;2022-10-17T07:23:49;16.60;99.90
11246;DHT22;59870;50.106;8.580;2022-10-17T07:26:18;16.50;99.90
11246;DHT22;59870;50.106;8.580;2022-10-17T07:28:51;16.50;99.90
11246;DHT22;59870;50.106;8.580;2022-10-17T07:31:27;16.50;99.90
11246;DHT22;59870;50.106;8.580;2022-10-17T07:33:54;16.60;99.90
11246;DHT22;59870;50.106;8.580;2022-10-17T07:36:22;16.70;99.90
11246;DHT22;59870;50.106;8.580;2022-10-17T07:38:49;16.70;99.90
11246;DHT22;59870;50.106;8.580;2022-10-17T07:41:18;17.10;99.90
11246;DHT22;59870;50.106;8.580;2022-10-17T07:43:48;16.90;99.90
11246;DHT22;59870;50.106;8.580;2022-10-17T07:46:19;17.00;99.90
11246;DHT22;59870;50.106;8.580;2022-10-17T07:48:47;17.10;99.90
11246;DHT22;59870;50.106;8.580;2022-10-17T07:51:15;17.20;99.90
11246;DHT22;59870;50.106;8.580;2022-10-17T07:53:43;17.30;99.90
11246;DHT22;59870;50.106;8.580;2022-10-17T07:56:15;17.50;99.90
11246;DHT22;59870;50.106;8.580;2022-10-17T07:58:42;17.70;99.90
11246;DHT22;59870;50.106;8.580;2022-10-17T08:01:10;17.60;99.90
11246;DHT22;59870;50.106;8.580;2022-10-17T08:03:46;17.80;99.90
11246;DHT22;59870;50.106;8.580;2022-10-17T08:06:15;18.00;99.90
11246;DHT22;59870;50.106;8.580;2022-10-17T08:08:43;18.10;99.90
11246;DHT22;59870;50.106;8.580;2022-10-17T08:11:12;18.40;99.90
11246;DHT22;59870;50.106;8.580;2022-10-17T08:13:40;18.60;99.90
11246;DHT22;59870;50.106;8.580;2022-10-17T08:16:10;18.90;99.90
11246;DHT22;59870;50.106;8.580;2022-10-17T08:18:39;19.10;99.90
11246;DHT22;59870;50.106;8.580;2022-10-17T08:21:07;19.40;99.90
11246;DHT22;59870;50.106;8.580;2022-10-17T08:23:36;19.60;99.90
11246;DHT22;59870;50.106;8.580;2022-10-17T08:26:05;20.00;99.90
11246;DHT22;59870;50.106;8.580;2022-10-17T08:28:37;20.00;99.90
11246;DHT22;59870;50.106;8.580;2022-10-17T08:31:17;20.20;99.90
11246;DHT22;59870;50.106;8.580;2022-10-17T08:33:46;20.50;99.90
11246;DHT22;59870;50.106;8.580;2022-10-17T08:36:15;20.70;99.90
11246;DHT22;59870;50.106;8.580;2022-10-17T08:38:43;21.10;99.90
11246;DHT22;59870;50.106;8.580;2022-10-17T08:41:47;21.20;99.90
11246;DHT22;59870;50.106;8.580;2022-10-17T08:47:03;21.50;99.90
11246;DHT22;59870;50.106;8.580;2022-10-17T08:49:46;21.70;99.70
11246;DHT22;59870;50.106;8.580;2022-10-17T08:54:57;22.10;99.00
11246;DHT22;59870;50.106;8.580;2022-10-17T08:57:26;22.40;98.10
11246;DHT22;59870;50.106;8.580;2022-10-17T08:59:55;22.50;97.70
11246;DHT22;59870;50.106;8.580;2022-10-17T09:02:41;22.80;97.70
11246;DHT22;59870;50.106;8.580;2022-10-17T09:10:59;23.20;97.70
11246;DHT22;59870;50.106;8.580;2022-10-17T09:16:58;23.30;97.00
11246;DHT22;59870;50.106;8.580;2022-10-17T09:19:48;23.50;97.10
11246;DHT22;59870;50.106;8.580;2022-10-17T09:22:22;23.70;96.30
11246;DHT22;59870;50.106;8.580;2022-10-17T09:24:59;23.80;95.90
11246;DHT22;59870;50.106;8.580;2022-10-17T09:27:37;23.90;96.10
11246;DHT22;59870;50.106;8.580;2022-10-17T09:33:22;24.20;95.80
11246;DHT22;59870;50.106;8.580;2022-10-17T09:36:23;24.40;95.20
11246;DHT22;59870;50.106;8.580;2022-10-17T09:39:00;24.60;94.30
11246;DHT22;59870;50.106;8.580;2022-10-17T09:41:36;25.00;94.90
11246;DHT22;59870;50.106;8.580;2022-10-17T09:49:31;25.30;93.50
11246;DHT22;59870;50.106;8.580;2022-10-17T09:52:04;25.40;93.20
11246;DHT22;59870;50.106;8.580;2022-10-17T09:57:16;25.60;92.80
11246;DHT22;59870;50.106;8.580;2022-10-17T09:59:56;25.70;92.10
11246;DHT22;59870;50.106;8.580;2022-10-17T10:02:25;25.70;92.10
11246;DHT22;59870;50.106;8.580;2022-10-17T10:05:04;25.70;91.60
11246;DHT22;59870;50.106;8.580;2022-10-17T10:07:37;25.60;91.80
11246;DHT22;59870;50.106;8.580;2022-10-17T10:10:07;25.80;91.70
11246;DHT22;59870;50.106;8.580;2022-10-17T10:15:43;25.60;91.70
11246;DHT22;59870;50.106;8.580;2022-10-17T10:21:09;25.90;91.70
11246;DHT22;59870;50.106;8.580;2022-10-17T10:23:39;25.50;91.60
11246;DHT22;59870;50.106;8.580;2022-10-17T10:26:25;25.50;91.40
11246;DHT22;59870;50.106;8.580;2022-10-17T10:29:03;25.50;91.90
11246;DHT22;59870;50.106;8.580;2022-10-17T10:31:34;25.50;91.70
11246;DHT22;59870;50.106;8.580;2022-10-17T10:34:14;25.50;91.60
11246;DHT22;59870;50.106;8.580;2022-10-17T10:36:44;25.40;92.10
11246;DHT22;59870;50.106;8.580;2022-10-17T10:39:31;25.50;91.60
11246;DHT22;59870;50.106;8.580;2022-10-17T10:42:02;25.30;92.00
11246;DHT22;59870;50.106;8.580;2022-10-17T10:44:31;25.30;91.90
11246;DHT22;59870;50.106;8.580;2022-10-17T10:47:08;25.30;91.20
11246;DHT22;59870;50.106;8.580;2022-10-17T10:49:40;25.50;91.90
11246;DHT22;59870;50.106;8.580;2022-10-17T10:52:14;25.30;92.30
11246;DHT22;59870;50.106;8.580;2022-10-17T10:54:58;25.50;92.40
11246;DHT22;59870;50.106;8.580;2022-10-17T10:57:32;25.50;92.40
11246;DHT22;59870;50.106;8.580;2022-10-17T11:03:09;25.30;92.00
11246;DHT22;59870;50.106;8.580;2022-10-17T11:06:21;25.30;92.70
11246;DHT22;59870;50.106;8.580;2022-10-17T11:08:43;25.30;92.40
11246;DHT22;59870;50.106;8.580;2022-10-17T11:14:02;25.30;92.40
11246;DHT22;59870;50.106;8.580;2022-10-17T11:19:48;25.60;92.20
11246;DHT22;59870;50.106;8.580;2022-10-17T11:22:39;25.40;92.40
11246;DHT22;59870;50.106;8.580;2022-10-17T11:25:04;25.40;91.90
11246;DHT22;59870;50.106;8.580;2022-10-17T11:27:34;25.50;91.80
11246;DHT22;59870;50.106;8.580;2022-10-17T11:30:03;25.70;92.10
11246;DHT22;59870;50.106;8.580;2022-10-17T11:32:41;25.50;91.70
11246;DHT22;59870;50.106;8.580;2022-10-17T11:35:26;25.50;91.80
11246;DHT22;59870;50.106;8.580;2022-10-17T11:38:16;25.60;91.20
11246;DHT22;59870;50.106;8.580;2022-10-17T11:40:49;25.90;91.90
11246;DHT22;59870;50.106;8.580;2022-10-17T11:43:27;25.70;91.80
11246;DHT22;59870;50.106;8.580;2022-10-17T11:46:04;25.60;91.70
11246;DHT22;59870;50.106;8.580;2022-10-17T11:48:41;25.60;91.40
11246;DHT22;59870;50.106;8.580;2022-10-17T11:51:12;25.90;91.00
11246;DHT22;59870;50.106;8.580;2022-10-17T11:54:12;25.90;91.20
11246;DHT22;59870;50.106;8.580;2022-10-17T11:56:50;25.70;91.50
11246;DHT22;59870;50.106;8.580;2022-10-17T11:59:52;25.70;91.50
11246;DHT22;59870;50.106;8.580;2022-10-17T12:13:54;25.90;91.10
11246;DHT22;59870;50.106;8.580;2022-10-17T12:19:13;26.10;90.80
11246;DHT22;59870;50.106;8.580;2022-10-17T12:27:33;25.90;90.90
11246;DHT22;59870;50.106;8.580;2022-10-17T12:33:01;25.90;90.50
11246;DHT22;59870;50.106;8.580;2022-10-17T12:35:36;25.90;90.80
11246;DHT22;59870;50.106;8.580;2022-10-17T12:45:48;26.20;90.50
11246;DHT22;59870;50.106;8.580;2022-10-17T12:54:10;26.00;90.20
11246;DHT22;59870;50.106;8.580;2022-10-17T12:56:41;26.00;90.40
11246;DHT22;59870;50.106;8.580;2022-10-17T12:59:17;26.00;90.50
11246;DHT22;59870;50.106;8.580;2022-10-17T13:01:49;26.00;90.50
11246;DHT22;59870;50.106;8.580;2022-10-17T13:04:19;26.10;91.00
11246;DHT22;59870;50.106;8.580;2022-10-17T13:06:52;26.40;90.60
11246;DHT22;59870;50.106;8.580;2022-10-17T13:09:32;26.00;90.70
11246;DHT22;59870;50.106;8.580;2022-10-17T13:12:04;26.10;90.60
11246;DHT22;59870;50.106;8.580;2022-10-17T13:14:33;26.10;90.70
11246;DHT22;59870;50.106;8.580;2022-10-17T13:17:03;26.10;90.50
11246;DHT22;59870;50.106;8.580;2022-10-17T13:19:41;26.10;90.30
11246;DHT22;59870;50.106;8.580;2022-10-17T13:22:13;26.20;90.50
11246;DHT22;59870;50.106;8.580;2022-10-17T13:24:41;26.40;90.60
11246;DHT22;59870;50.106;8.580;2022-10-17T13:29:48;26.50;90.60
11246;DHT22;59870;50.106;8.580;2022-10-17T13:32:16;26.30;90.30
11246;DHT22;59870;50.106;8.580;2022-10-17T13:34:43;26.40;90.30
11246;DHT22;59870;50.106;8.580;2022-10-17T13:37:13;26.50;90.30
11246;DHT22;59870;50.106;8.580;2022-10-17T13:39:44;26.40;90.10
11246;DHT22;59870;50.106;8.580;2022-10-17T13:42:35;26.50;90.00
11246;DHT22;59870;50.106;8.580;2022-10-17T13:45:04;26.40;90.20
11246;DHT22;59870;50.106;8.580;2022-10-17T13:47:38;26.50;89.30
11246;DHT22;59870;50.106;8.580;2022-10-17T13:50:06;26.70;88.80
11246;DHT22;59870;50.106;8.580;2022-10-17T13:53:47;26.60;89.30
11246;DHT22;59870;50.106;8.580;2022-10-17T13:56:19;26.50;90.00
11246;DHT22;59870;50.106;8.580;2022-10-17T13:59:01;26.80;89.50
11246;DHT22;59870;50.106;8.580;2022-10-17T14:01:33;26.60;89.40
11246;DHT22;59870;50.106;8.580;2022-10-17T14:04:00;26.60;89.50
11246;DHT22;59870;50.106;8.580;2022-10-17T14:06:42;26.60;90.00
11246;DHT22;59870;50.106;8.580;2022-10-17T14:09:21;26.70;89.80
11246;DHT22;59870;50.106;8.580;2022-10-17T14:12:02;26.60;89.00
11246;DHT22;59870;50.106;8.580;2022-10-17T14:14:32;26.50;88.80
11246;DHT22;59870;50.106;8.580;2022-10-17T14:17:21;26.50;87.90
11246;DHT22;59870;50.106;8.580;2022-10-17T14:19:59;26.50;87.70
11246;DHT22;59870;50.106;8.580;2022-10-17T14:22:50;26.70;87.80
11246;DHT22;59870;50.106;8.580;2022-10-17T14:25:39;26.50;87.60
11246;DHT22;59870;50.106;8.580;2022-10-17T14:30:38;26.50;87.50
11246;DHT22;59870;50.106;8.580;2022-10-17T14:33:28;26.70;87.80
11246;DHT22;59870;50.106;8.580;2022-10-17T14:35:58;26.70;88.20
11246;DHT22;59870;50.106;8.580;2022-10-17T14:38:27;26.60;87.80
11246;DHT22;59870;50.106;8.580;2022-10-17T14:40:59;26.60;87.60
11246;DHT22;59870;50.106;8.580;2022-10-17T14:44:02;26.40;87.70
11246;DHT22;59870;50.106;8.580;2022-10-17T14:46:35;26.70;88.00
11246;DHT22;59870;50.106;8.580;2022-10-17T14:49:18;26.50;87.60
11246;DHT22;59870;50.106;8.580;2022-10-17T14:54:48;26.40;87.60
11246;DHT22;59870;50.106;8.580;2022-10-17T14:57:21;26.50;87.60
11246;DHT22;59870;50.106;8.580;2022-10-17T14:59:49;26.50;88.10
11246;DHT22;59870;50.106;8.580;2022-10-17T15:02:27;26.50;87.20
11246;DHT22;59870;50.106;8.580;2022-10-17T15:04:56;26.70;87.90
11246;DHT22;59870;50.106;8.580;2022-10-17T15:07:23;26.50;87.50
11246;DHT22;59870;50.106;8.580;2022-10-17T15:09:52;26.80;88.40
11246;DHT22;59870;50.106;8.580;2022-10-17T15:12:23;26.70;88.10
11246;DHT22;59870;50.106;8.580;2022-10-17T15:15:00;26.50;88.00
11246;DHT22;59870;50.106;8.580;2022-10-17T15:17:29;26.70;88.20
11246;DHT22;59870;50.106;8.580;2022-10-17T15:19:57;26.50;87.50
11246;DHT22;59870;50.106;8.580;2022-10-17T15:22:25;26.70;88.10
11246;DHT22;59870;50.106;8.580;2022-10-17T15:24:52;26.60;88.00
11246;DHT22;59870;50.106;8.580;2022-10-17T15:27:22;26.50;88.40
11246;DHT22;59870;50.106;8.580;2022-10-17T15:29:50;26.80;88.30
11246;DHT22;59870;50.106;8.580;2022-10-17T15:32:19;26.60;88.10
11246;DHT22;59870;50.106;8.580;2022-10-17T15:34:46;26.80;88.70
11246;DHT22;59870;50.106;8.580;2022-10-17T15:37:22;26.60;88.00
11246;DHT22;59870;50.106;8.580;2022-10-17T15:39:54;26.50;88.30
11246;DHT22;59870;50.106;8.580;2022-10-17T15:42:26;26.60;88.30
11246;DHT22;59870;50.106;8.580;2022-10-17T15:44:55;26.70;88.10
11246;DHT22;59870;50.106;8.580;2022-10-17T15:47:26;26.50;88.20
11246;DHT22;59870;50.106;8.580;2022-10-17T15:49:55;26.50;88.40
11246;DHT22;59870;50.106;8.580;2022-10-17T15:52:24;26.70;88.60
11246;DHT22;59870;50.106;8.580;2022-10-17T15:54:52;26.70;88.50
11246;DHT22;59870;50.106;8.580;2022-10-17T15:57:22;26.70;88.40
11246;DHT22;59870;50.106;8.580;2022-10-17T15:59:53;26.60;88.90
11246;DHT22;59870;50.106;8.580;2022-10-17T16:02:22;26.40;88.70
11246;DHT22;59870;50.106;8.580;2022-10-17T16:04:50;26.40;88.70
11246;DHT22;59870;50.106;8.580;2022-10-17T16:07:18;26.30;89.00
11246;DHT22;59870;50.106;8.580;2022-10-17T16:09:46;26.50;89.40
11246;DHT22;59870;50.106;8.580;2022-10-17T16:12:19;26.20;89.30
11246;DHT22;59870;50.106;8.580;2022-10-17T16:14:48;26.30;89.70
11246;DHT22;59870;50.106;8.580;2022-10-17T16:17:15;26.20;89.60
11246;DHT22;59870;50.106;8.580;2022-10-17T16:19:44;26.40;90.00
11246;DHT22;59870;50.106;8.580;2022-10-17T16:22:31;26.10;90.00
11246;DHT22;59870;50.106;8.580;2022-10-17T16:24:59;26.10;90.00
11246;DHT22;59870;50.106;8.580;2022-10-17T16:27:35;26.00;90.00
11246;DHT22;59870;50.106;8.580;2022-10-17T16:30:05;26.00;90.20
11246;DHT22;59870;50.106;8.580;2022-10-17T16:32:34;25.90;90.10
11246;DHT22;59870;50.106;8.580;2022-10-17T16:35:03;26.10;90.50
11246;DHT22;59870;50.106;8.580;2022-10-17T16:37:32;25.80;90.50
11246;DHT22;59870;50.106;8.580;2022-10-17T16:40:27;25.90;90.60
11246;DHT22;59870;50.106;8.580;2022-10-17T16:42:55;25.70;90.60
11246;DHT22;59870;50.106;8.580;2022-10-17T16:45:22;25.90;90.90
11246;DHT22;59870;50.106;8.580;2022-10-17T16:47:50;25.70;90.80
11246;DHT22;59870;50.106;8.580;2022-10-17T16:50:19;25.70;91.00
11246;DHT22;59870;50.106;8.580;2022-10-17T16:52:47;25.70;90.90
11246;DHT22;59870;50.106;8.580;2022-10-17T16:55:15;25.50;91.00
11246;DHT22;59870;50.106;8.580;2022-10-17T16:57:49;25.50;91.10
11246;DHT22;59870;50.106;8.580;2022-10-17T17:00:16;25.50;91.20
11246;DHT22;59870;50.106;8.580;2022-10-17T17:02:46;25.30;91.20
11246;DHT22;59870;50.106;8.580;2022-10-17T17:05:14;25.30;91.30
11246;DHT22;59870;50.106;8.580;2022-10-17T17:07:42;25.30;91.30
11246;DHT22;59870;50.106;8.580;2022-10-17T17:10:10;25.40;91.50
11246;DHT22;59870;50.106;8.580;2022-10-17T17:12:37;25.10;91.70
11246;DHT22;59870;50.106;8.580;2022-10-17T17:15:05;25.10;91.90
11246;DHT22;59870;50.106;8.580;2022-10-17T17:17:34;25.00;92.10
11246;DHT22;59870;50.106;8.580;2022-10-17T17:20:18;25.10;92.30
11246;DHT22;59870;50.106;8.580;2022-10-17T17:22:46;25.00;92.40
11246;DHT22;59870;50.106;8.580;2022-10-17T17:25:14;24.90;92.60
11246;DHT22;59870;50.106;8.580;2022-10-17T17:27:42;24.70;92.60
11246;DHT22;59870;50.106;8.580;2022-10-17T17:30:10;24.60;92.70
11246;DHT22;59870;50.106;8.580;2022-10-17T17:32:37;24.60;92.90
11246;DHT22;59870;50.106;8.580;2022-10-17T17:35:06;24.70;93.00
11246;DHT22;59870;50.106;8.580;2022-10-17T17:37:33;24.50;93.10
11246;DHT22;59870;50.106;8.580;2022-10-17T18:21:25;24.00;94.30
11246;DHT22;59870;50.106;8.580;2022-10-17T18:23:53;24.00;94.30
11246;DHT22;59870;50.106;8.580;2022-10-17T18:26:20;23.90;94.40
11246;DHT22;59870;50.106;8.580;2022-10-17T18:28:48;24.20;94.50
11246;DHT22;59870;50.106;8.580;2022-10-17T18:31:19;23.90;94.60
11246;DHT22;59870;50.106;8.580;2022-10-17T18:33:51;23.80;94.60
11246;DHT22;59870;50.106;8.580;2022-10-17T18:36:22;23.80;94.60
11246;DHT22;59870;50.106;8.580;2022-10-17T18:38:49;24.00;94.80
11246;DHT22;59870;50.106;8.580;2022-10-17T18:41:20;24.00;94.90
11246;DHT22;59870;50.106;8.580;2022-10-17T18:43:49;23.90;94.90